Airfield :
LOGIN :

Register | Disclaimer

   EN    FR    IT 

 










Legend :    VFR   Marginal VFR   IFR   Intensive IFR   Very Intensive IFR
Visi :
Ceiling :
>= 8 km
>= 3000ft
5 to 8 km
1000 to 3000 ft
1500m to 5 km
500 to 1000 ft
800 to 1500m
200 to 500 ft
< 800m
< 200 ft
Symbols :   Thunderstorms  Fog  Heavy snow  Heavy precipitations  Wind > 20 kt
SIGMETs :     Misc.  Thunderstorms  Icing  Turbulence  Mountain Waves  Volcanic Ashes






- Airport Elevation : 336 ft
- IATA code : GCI


EGJB - Guernsey

CURRENT METAR :
  • 191050Z 20018KT 9999 FEW008 BKN011 09/08 Q1011

EXPIRED METARs :
  • 191020Z 21018KT 9999 FEW008 SCT010 BKN014 10/08 Q1011
  • 190950Z 22017KT 9999 SCT008 BKN020 10/09 Q1011
  • 190920Z 22018KT 9999 FEW008 BKN026 10/08 Q1011
  • 190850Z 23020KT 9999 FEW004 BKN025 10/08 Q1012
  • 190820Z 23018KT 9999 FEW002 SCT004 BKN020 09/09 Q1012

TAF TAF EGJB
Valid from the 19 at 09:00 until the 19 at 18:00 UTC


190758Z 1909/1918 23018KT 9999 SCT006 BKN012
TEMPO 1909/1916 23020G32KT FEW010 BKN025
PROB30
TEMPO 1909/1912 4000 -DZ BKN004
BECMG 1916/1918 20023G35KT
TEMPO 1916/1918 4000 -RADZ BKN005
ATIS : +44 1481 238 957



MET'MAP, your aeronautical weather chart ! - Copyright ORBIFLY December 2007 - Disclaimer

ORBIFLY MET'MAP TEAM :

Programming & Development : Alexandra Zaïnal
Concept & original design : Baudouin d'Aumeries
Assistance for programming : Marc-Olivier Méhu
Technical & hardware support : Manuel Goepfert

Contact : metmap@orbifly.com




SOURCES & CREDITS :

   NOAA